Time;durP1;ratioP1;P1;durP2;ratioP2;P2;SDS_P1;SDS_P2;PMS_P1;PMS_P2;Temp;Humidity;BMP_temperature;BMP_pressure;BME280_temperature;BME280_humidity;BME280_pressure;Samples;Min_cycle;Max_cycle;Signal;HPM_P1;HPM_P2
2021/12/05 00:18:58;;;;;;;23.45;15.63;;;;;;;2.54;79.49;91311.50;2075013;69;20140;-70
2021/12/05 00:23:49;;;;;;;20.90;14.55;;;;;;;3.07;76.94;91301.09;2074666;69;20566;-71
2021/12/05 00:26:19;;;;;;;14.55;9.93;;;;;;;3.00;76.56;91304.78;2074614;69;20259;-70
2021/12/05 00:34:29;;;;;;;15.77;9.00;;;;;;;2.94;77.21;91312.72;2074479;69;20603;-69
2021/12/05 00:43:00;;;;;;;15.15;10.52;;;;;;;3.11;77.20;91303.38;2071040;69;20160;-68
2021/12/05 00:45:41;;;;;;;17.58;11.43;;;;;;;3.00;77.11;91311.06;2074827;69;20148;-70
2021/12/05 01:02:29;;;;;;;12.32;8.07;;;;;;;3.18;77.05;91303.19;2071365;69;20179;-70
2021/12/05 01:09:47;;;;;;;7.05;4.53;;;;;;;3.26;76.31;91305.78;2071206;69;20155;-68
2021/12/05 01:15:06;;;;;;;11.20;7.40;;;;;;;3.19;75.89;91309.47;2074836;69;20162;-68
2021/12/05 01:17:59;;;;;;;11.60;7.90;;;;;;;3.20;76.23;91314.44;2071077;69;20147;-70
2021/12/05 01:20:27;;;;;;;11.95;7.55;;;;;;;3.20;76.83;91316.47;2071151;69;20166;-68
2021/12/05 01:23:02;;;;;;;11.02;7.47;;;;;;;3.13;77.37;91317.44;2071098;69;20152;-69
2021/12/05 01:28:11;;;;;;;5.18;3.63;;;;;;;3.19;76.91;91312.25;2074784;69;20159;-68
2021/12/05 01:33:39;;;;;;;9.40;6.28;;;;;;;3.00;77.96;91318.69;2071187;69;20163;-69
2021/12/05 01:47:25;;;;;;;9.85;6.63;;;;;;;3.17;76.63;91318.41;2074883;69;20210;-71
2021/12/05 02:44:03;;;;;;;9.50;6.32;;;;;;;3.27;77.12;91340.59;2067354;69;20587;-69
2021/12/05 02:46:30;;;;;;;10.15;6.55;;;;;;;3.27;75.97;91332.97;2071470;69;20156;-70
2021/12/05 02:49:02;;;;;;;11.30;7.70;;;;;;;3.03;78.31;91334.19;2074389;69;20136;-68
2021/12/05 02:51:29;;;;;;;13.67;7.30;;;;;;;3.23;77.39;91337.53;2074637;69;20136;-71
2021/12/05 02:56:26;;;;;;;8.35;6.28;;;;;;;3.30;76.70;91347.75;2071449;69;20144;-72
2021/12/05 02:58:55;;;;;;;10.35;7.15;;;;;;;3.23;76.54;91340.31;2071514;69;20148;-72
2021/12/05 03:01:44;;;;;;;9.68;6.60;;;;;;;3.20;77.76;91347.06;2071474;69;20172;-72
2021/12/05 03:04:10;;;;;;;10.95;7.28;;;;;;;3.18;78.35;91350.47;2071502;69;20532;-69
2021/12/05 03:06:38;;;;;;;7.30;5.50;;;;;;;3.21;76.55;91349.28;2071968;69;20147;-71
2021/12/05 03:09:13;;;;;;;9.80;6.40;;;;;;;3.34;76.74;91355.59;2075338;69;20629;-70
2021/12/05 03:11:40;;;;;;;9.68;6.57;;;;;;;3.12;78.03;91349.34;2072034;69;20242;-69
2021/12/05 03:14:07;;;;;;;10.25;6.32;;;;;;;2.92;78.57;91352.22;2071958;69;20192;-72
2021/12/05 03:16:36;;;;;;;10.80;6.80;;;;;;;3.13;77.78;91339.66;2072040;69;20633;-71
2021/12/05 03:19:04;;;;;;;11.32;6.45;;;;;;;3.19;76.92;91338.00;2072016;69;20231;-71
2021/12/05 03:21:31;;;;;;;10.75;6.60;;;;;;;3.15;77.43;91337.75;2072076;69;20195;-69
2021/12/05 03:23:58;;;;;;;10.07;6.40;;;;;;;3.23;77.23;91334.75;2072027;69;20136;-69
2021/12/05 03:26:31;;;;;;;9.20;6.40;;;;;;;3.31;76.23;91347.16;2071997;69;20172;-69
2021/12/05 03:28:57;;;;;;;7.47;5.68;;;;;;;3.26;76.65;91342.66;2069182;69;20164;-70
2021/12/05 03:31:27;;;;;;;9.13;5.97;;;;;;;3.24;76.97;91350.84;2071963;69;20236;-69
2021/12/05 03:33:53;;;;;;;6.32;4.70;;;;;;;3.29;76.49;91358.13;2072018;69;20160;-68
2021/12/05 03:36:21;;;;;;;7.20;4.35;;;;;;;3.24;76.86;91358.47;2072007;69;20144;-72
2021/12/05 03:38:48;;;;;;;6.43;4.10;;;;;;;3.21;77.07;91359.69;2069212;69;20171;-72
2021/12/05 03:41:15;;;;;;;7.03;4.75;;;;;;;3.27;76.33;91351.72;2071988;69;20209;-70
2021/12/05 03:43:51;;;;;;;8.30;4.88;;;;;;;3.19;76.38;91351.91;2072011;69;20205;-69
2021/12/05 03:46:18;;;;;;;6.32;4.57;;;;;;;3.18;76.81;91347.69;2071996;69;20335;-69
2021/12/05 03:48:48;;;;;;;6.93;4.45;;;;;;;3.23;76.91;91346.63;2071965;69;20138;-71
2021/12/05 03:51:17;;;;;;;6.43;4.32;;;;;;;3.24;76.30;91344.56;2071840;69;20146;-69
2021/12/05 03:53:44;;;;;;;5.35;4.18;;;;;;;3.08;77.79;91355.34;2075301;69;20155;-68
2021/12/05 03:56:10;;;;;;;8.82;4.80;;;;;;;3.06;77.77;91364.28;2071913;69;20163;-70
2021/12/05 03:58:37;;;;;;;5.70;3.72;;;;;;;3.21;76.73;91351.34;2075290;69;20148;-70
2021/12/05 04:01:09;;;;;;;6.10;3.83;;;;;;;3.16;76.86;91346.81;2075286;69;20235;-68
2021/12/05 04:03:39;;;;;;;7.80;4.95;;;;;;;3.19;76.28;91343.56;2071870;69;20142;-69
2021/12/05 04:06:07;;;;;;;5.22;4.28;;;;;;;3.16;76.08;91353.13;2071824;69;20235;-69
2021/12/05 04:08:34;;;;;;;5.93;3.78;;;;;;;3.00;76.49;91355.53;2071884;69;20250;-70
2021/12/05 04:11:07;;;;;;;7.75;4.55;;;;;;;3.09;76.02;91364.44;2072024;69;20150;-71
2021/12/05 04:13:33;;;;;;;7.07;4.68;;;;;;;3.00;76.88;91349.97;2071941;69;20599;-69
2021/12/05 04:16:01;;;;;;;7.03;5.15;;;;;;;3.10;76.48;91352.69;2071774;69;20150;-72
2021/12/05 04:18:27;;;;;;;4.13;3.13;;;;;;;3.10;75.82;91344.34;2071933;69;20210;-72
2021/12/05 04:20:56;;;;;;;3.13;2.40;;;;;;;3.16;75.17;91353.13;2071804;69;20143;-73
2021/12/05 04:23:24;;;;;;;3.55;2.58;;;;;;;3.12;76.01;91349.34;2071868;69;20155;-69
2021/12/05 04:25:52;;;;;;;6.97;3.85;;;;;;;2.79;78.06;91352.72;2071908;69;20223;-69
2021/12/05 04:28:21;;;;;;;4.10;3.20;;;;;;;3.03;77.17;91348.81;2075367;69;20144;-70
2021/12/05 04:30:49;;;;;;;4.05;2.75;;;;;;;3.03;76.91;91345.28;2071873;69;20144;-69
2021/12/05 04:33:14;;;;;;;3.50;2.72;;;;;;;3.04;76.79;91338.41;2071846;69;20141;-71
2021/12/05 04:35:42;;;;;;;5.50;3.58;;;;;;;2.93;77.25;91334.25;2071751;69;20154;-70
2021/12/05 04:38:07;;;;;;;5.07;3.50;;;;;;;2.76;76.88;91343.53;2071849;69;20152;-68
2021/12/05 04:40:33;;;;;;;5.97;4.00;;;;;;;2.73;78.16;91344.00;2071875;69;20591;-69
2021/12/05 04:43:03;;;;;;;5.18;3.70;;;;;;;2.87;77.51;91339.38;2071874;69;20595;-68
2021/12/05 04:45:30;;;;;;;5.57;3.38;;;;;;;2.97;76.48;91340.03;2071870;69;20144;-70
2021/12/05 04:48:01;;;;;;;3.50;2.53;;;;;;;2.97;76.08;91339.31;2071872;69;20179;-70
2021/12/05 04:50:28;;;;;;;4.82;3.70;;;;;;;2.44;79.81;91339.31;2071749;69;20151;-69
2021/12/05 04:52:55;;;;;;;4.43;3.47;;;;;;;2.59;79.13;91345.81;2071839;69;20345;-72
2021/12/05 04:55:22;;;;;;;4.75;3.30;;;;;;;2.71;78.62;91344.59;2075118;69;20175;-71
2021/12/05 04:57:48;;;;;;;4.82;3.42;;;;;;;2.88;77.43;91348.44;2071880;69;20159;-69
2021/12/05 05:00:23;;;;;;;3.33;2.67;;;;;;;2.90;76.75;91351.38;2071849;69;20534;-69
2021/12/05 05:02:49;;;;;;;4.60;3.03;;;;;;;2.93;76.25;91350.91;2075188;69;20155;-69
2021/12/05 05:05:16;;;;;;;3.85;2.90;;;;;;;2.88;76.99;91343.63;2075064;69;20194;-69
2021/12/05 05:07:43;;;;;;;4.82;3.30;;;;;;;2.84;76.79;91354.47;2075234;69;20148;-69
2021/12/05 05:10:23;;;;;;;5.25;3.75;;;;;;;2.87;76.90;91355.34;2075137;69;20144;-69
2021/12/05 05:12:49;;;;;;;4.15;3.28;;;;;;;2.87;76.40;91355.34;2075185;69;20144;-69
2021/12/05 05:15:20;;;;;;;4.20;3.20;;;;;;;2.78;77.25;91356.84;2075140;69;20603;-70
2021/12/05 05:17:48;;;;;;;3.95;3.03;;;;;;;2.86;76.62;91351.81;2075147;69;20139;-71
2021/12/05 05:20:39;;;;;;;3.72;1.75;;;;;;;2.86;76.36;91353.88;2075060;69;20148;-69
2021/12/05 05:39:35;;;;;;;3.53;2.55;;;;;;;2.79;76.92;91380.53;2075061;69;20182;-69
2021/12/05 05:46:57;;;;;;;5.03;3.50;;;;;;;2.65;77.41;91382.34;2075100;69;20205;-69
2021/12/05 05:51:58;;;;;;;5.20;3.85;;;;;;;2.60;77.84;91380.63;2075217;69;20205;-71
2021/12/05 05:54:24;;;;;;;6.15;3.63;;;;;;;2.77;76.56;91378.34;2071680;69;20630;-70
2021/12/05 05:56:56;;;;;;;4.85;3.67;;;;;;;2.76;76.76;91384.50;2075062;69;20160;-71
2021/12/05 05:59:27;;;;;;;6.15;3.70;;;;;;;2.76;76.84;91381.72;2071792;69;20232;-73
2021/12/05 06:04:19;;;;;;;4.75;3.50;;;;;;;2.79;76.73;91380.53;2074880;69;20210;-73
2021/12/05 06:06:44;;;;;;;5.35;3.95;;;;;;;2.68;76.92;91381.91;2075027;69;20140;-73
2021/12/05 06:09:10;;;;;;;8.88;5.53;;;;;;;2.44;78.22;91389.31;2075000;69;20642;-72
2021/12/05 06:11:36;;;;;;;14.05;8.40;;;;;;;2.24;80.15;91388.63;2075059;69;20155;-71
2021/12/05 06:14:03;;;;;;;14.68;8.75;;;;;;;2.38;79.93;91397.22;2074987;69;20164;-69
2021/12/05 06:16:30;;;;;;;16.80;9.98;;;;;;;2.40;79.80;91393.84;2075153;69;20205;-70
2021/12/05 06:18:57;;;;;;;15.95;9.15;;;;;;;2.57;79.53;91415.13;2071531;69;20198;-70
2021/12/05 06:21:23;;;;;;;18.25;9.55;;;;;;;2.70;78.32;91412.63;2075215;69;20147;-70
2021/12/05 06:23:49;;;;;;;12.98;7.95;;;;;;;2.69;77.49;91411.13;2075043;69;20152;-70
2021/12/05 06:26:21;;;;;;;13.18;8.15;;;;;;;2.62;78.10;91409.28;2071482;69;20519;-69
2021/12/05 06:29:03;;;;;;;12.13;8.88;;;;;;;2.70;77.66;91418.19;2074991;69;20166;-70
2021/12/05 06:47:12;;;;;;;39.72;14.75;;;;;;;2.47;79.78;91429.78;2075444;69;20263;-69
2021/12/05 06:49:40;;;;;;;38.53;18.08;;;;;;;2.55;79.47;91432.41;2075356;69;20710;-72
2021/12/05 06:52:07;;;;;;;20.15;13.25;;;;;;;2.56;78.99;91431.06;2075487;69;20158;-73
2021/12/05 06:54:35;;;;;;;23.48;12.52;;;;;;;2.57;78.89;91435.31;2075470;69;20155;-70
2021/12/05 06:57:01;;;;;;;18.75;12.38;;;;;;;2.60;78.81;91436.19;2072013;69;20596;-70
2021/12/05 06:59:27;;;;;;;20.33;12.77;;;;;;;2.58;78.62;91439.56;2075506;69;20163;-71
2021/12/05 07:01:53;;;;;;;27.30;13.35;;;;;;;2.28;80.26;91441.66;2069301;69;20170;-71
2021/12/05 07:06:50;;;;;;;19.73;12.93;;;;;;;2.57;79.40;91434.56;2075582;69;20136;-70
2021/12/05 07:09:16;;;;;;;22.63;14.38;;;;;;;2.69;78.72;91441.69;2071996;69;20266;-73
2021/12/05 07:22:01;;;;;;;20.35;12.82;;;;;;;2.72;78.55;91434.97;2075419;69;20604;-70
2021/12/05 07:24:52;;;;;;;21.23;13.80;;;;;;;2.69;78.48;91440.97;2075389;69;20151;-69
2021/12/05 07:41:20;;;;;;;17.65;11.68;;;;;;;3.04;77.29;91427.38;2075532;69;20576;-72
2021/12/05 07:43:46;;;;;;;21.30;13.50;;;;;;;2.82;78.13;91418.25;2075145;69;20140;-71
2021/12/05 07:46:12;;;;;;;21.00;13.15;;;;;;;2.79;78.69;91420.19;2075199;69;20469;-71
2021/12/05 07:48:41;;;;;;;23.65;14.45;;;;;;;2.75;79.25;91424.75;2075114;69;20216;-72
2021/12/05 07:51:32;;;;;;;25.70;14.95;;;;;;;2.90;78.31;91418.09;2074976;69;20148;-70
2021/12/05 07:54:11;;;;;;;21.88;14.75;;;;;;;2.98;77.79;91427.69;2075184;69;20146;-70
2021/12/05 07:56:51;;;;;;;23.23;15.50;;;;;;;3.01;77.33;91423.00;2075407;69;20162;-69
2021/12/05 08:15:32;;;;;;;25.90;16.58;;;;;;;3.25;77.12;91435.75;2075304;69;20147;-70
2021/12/05 08:17:58;;;;;;;25.80;17.15;;;;;;;3.16;77.32;91444.13;2075267;69;20144;-70
2021/12/05 08:20:35;;;;;;;24.75;16.45;;;;;;;3.26;76.96;91448.34;2075153;69;20193;-70
2021/12/05 08:23:02;;;;;;;28.65;17.65;;;;;;;3.23;76.87;91448.78;2075197;69;20175;-70
2021/12/05 08:25:31;;;;;;;27.30;17.60;;;;;;;3.31;76.99;91452.84;2075110;69;20156;-70
2021/12/05 08:28:14;;;;;;;26.08;17.05;;;;;;;3.34;77.08;91445.34;2075215;69;20238;-70
2021/12/05 08:30:41;;;;;;;25.88;16.63;;;;;;;3.46;76.81;91442.66;2075236;69;20168;-71
2021/12/05 09:24:47;;;;;;;24.45;15.98;;;;;;;3.86;74.13;91435.50;2071792;69;20144;-71
2021/12/05 09:50:57;;;;;;;22.92;15.70;;;;;;;3.49;75.72;91431.06;2074018;69;20154;-69
2021/12/05 10:38:07;;;;;;;13.90;8.85;;;;;;;4.63;70.03;91392.97;2074923;69;20191;-73
2021/12/05 10:40:44;;;;;;;17.05;10.63;;;;;;;4.83;69.24;91396.25;2074975;69;20162;-71
2021/12/05 10:43:16;;;;;;;17.10;10.55;;;;;;;4.80;69.40;91389.09;2074841;69;20293;-71
2021/12/05 10:45:47;;;;;;;16.88;10.00;;;;;;;4.69;69.20;91393.34;2074744;69;20603;-73
2021/12/05 10:48:21;;;;;;;13.88;9.23;;;;;;;4.73;69.75;91392.84;2074769;69;20197;-72
2021/12/05 10:50:56;;;;;;;14.32;8.32;;;;;;;4.70;67.48;91386.41;2074879;69;20144;-74
2021/12/05 10:53:53;;;;;;;11.48;7.20;;;;;;;4.56;67.92;91391.13;2074563;69;20178;-71
2021/12/05 10:56:22;;;;;;;11.40;7.00;;;;;;;4.38;69.01;91387.22;2071418;69;20239;-72
2021/12/05 10:58:47;;;;;;;9.25;6.53;;;;;;;4.57;67.66;91389.78;2074849;69;20136;-74
2021/12/05 11:01:19;;;;;;;9.57;6.57;;;;;;;4.83;68.23;91391.41;2074910;69;20147;-73
2021/12/05 11:03:47;;;;;;;10.98;7.80;;;;;;;4.93;68.11;91396.13;2074903;69;20186;-71
2021/12/05 11:06:23;;;;;;;12.50;7.40;;;;;;;4.86;67.21;91395.06;2074848;69;20144;-72
2021/12/05 11:08:56;;;;;;;11.25;6.82;;;;;;;4.73;66.91;91398.44;2074864;69;20612;-71
2021/12/05 11:11:22;;;;;;;;;;;;;;;4.73;67.55;91388.00;2071663;69;20170;-71
2021/12/05 11:13:48;;;;;;;11.48;7.53;;;;;;;4.71;67.84;91387.16;2074889;69;20067;-72
2021/12/05 11:16:42;;;;;;;11.45;7.80;;;;;;;4.91;67.51;91387.66;2074916;69;20166;-76
2021/12/05 11:19:28;;;;;;;12.38;7.40;;;;;;;5.03;67.87;91389.09;2074812;69;20140;-72
2021/12/05 11:22:19;;;;;;;10.60;7.32;;;;;;;4.85;67.45;91385.22;2074858;69;20152;-72
2021/12/05 11:24:52;;;;;;;13.70;8.02;;;;;;;4.61;68.23;91380.97;2072335;69;20151;-71
2021/12/05 11:27:35;;;;;;;11.43;7.78;;;;;;;4.72;67.34;91375.41;2074076;69;20199;-69
2021/12/05 11:30:16;;;;;;;10.38;7.05;;;;;;;4.58;67.69;91380.84;2071484;69;20595;-70
2021/12/05 11:32:58;;;;;;;11.45;6.68;;;;;;;4.65;67.84;91389.56;2072023;69;20550;-69
2021/12/05 11:35:39;;;;;;;10.35;6.97;;;;;;;4.96;67.11;91395.66;2071801;69;20152;-72
2021/12/05 11:38:24;;;;;;;11.18;7.18;;;;;;;4.73;67.01;91392.84;2071733;69;20151;-69
2021/12/05 11:41:10;;;;;;;11.65;6.88;;;;;;;4.65;67.08;91384.00;2071840;69;20136;-71
2021/12/05 11:43:38;;;;;;;11.95;7.45;;;;;;;4.79;66.97;91388.38;2071782;69;20218;-72
2021/12/05 11:46:18;;;;;;;12.35;7.72;;;;;;;4.83;67.14;91388.59;2071418;69;20187;-71
2021/12/05 11:49:02;;;;;;;9.88;6.78;;;;;;;4.20;67.92;91372.88;2071450;69;20794;-70
2021/12/05 11:51:32;;;;;;;10.60;6.20;;;;;;;4.27;67.37;91374.72;2071685;69;20140;-71
2021/12/05 11:54:22;;;;;;;9.90;6.30;;;;;;;4.13;67.73;91369.00;2071855;69;20161;-70
2021/12/05 11:56:51;;;;;;;9.90;6.68;;;;;;;4.02;67.65;91367.63;2068288;69;20144;-71
2021/12/05 11:59:39;;;;;;;10.88;7.13;;;;;;;4.28;67.85;91368.56;2071857;69;20132;-71
2021/12/05 12:02:20;;;;;;;11.07;7.80;;;;;;;4.77;67.36;91370.81;2071840;69;20129;-70
2021/12/05 12:05:02;;;;;;;10.35;7.28;;;;;;;4.67;67.45;91367.38;2071524;69;20136;-68
2021/12/05 12:07:41;;;;;;;11.43;7.65;;;;;;;4.89;67.68;91370.78;2068491;69;20176;-69
2021/12/05 12:10:16;;;;;;;13.68;9.20;;;;;;;4.73;68.41;91370.56;2068474;69;20140;-69
2021/12/05 12:12:47;;;;;;;10.82;8.70;;;;;;;4.93;68.13;91366.19;2065282;69;20144;-71
2021/12/05 12:15:14;;;;;;;13.20;9.57;;;;;;;4.86;68.55;91369.97;2067991;69;20628;-69
2021/12/05 12:17:45;;;;;;;20.60;13.23;;;;;;;4.81;68.53;91377.34;2067820;69;20148;-70
2021/12/05 12:20:13;;;;;;;22.75;14.05;;;;;;;4.66;69.43;91374.28;2068126;69;20576;-70
2021/12/05 12:22:40;;;;;;;36.72;18.13;;;;;;;4.47;70.17;91366.88;2068269;69;20176;-70
2021/12/05 12:25:11;;;;;;;40.30;19.52;;;;;;;4.33;71.18;91373.03;2068262;69;20149;-74
2021/12/05 12:27:41;;;;;;;34.13;17.50;;;;;;;4.07;72.08;91372.13;2068125;69;20228;-74
2021/12/05 12:30:10;;;;;;;31.13;16.63;;;;;;;4.41;70.89;91370.03;2068322;69;20155;-71
2021/12/05 12:32:42;;;;;;;30.08;16.38;;;;;;;3.87;72.74;91362.50;2069025;69;20274;-71
2021/12/05 12:35:18;;;;;;;49.13;20.25;;;;;;;4.27;72.05;91371.94;2071404;69;20603;-74
2021/12/05 12:38:08;;;;;;;39.05;18.02;;;;;;;4.65;70.77;91372.84;2070463;69;20518;-73
2021/12/05 12:40:36;;;;;;;22.67;13.68;;;;;;;4.51;70.48;91358.78;2070779;69;20184;-70
2021/12/05 12:43:02;;;;;;;19.38;13.05;;;;;;;4.88;69.90;91364.50;2071368;69;20379;-73
2021/12/05 12:45:35;;;;;;;19.52;12.70;;;;;;;5.09;68.91;91361.56;2068228;69;20480;-71
2021/12/05 12:48:03;;;;;;;19.00;13.13;;;;;;;4.56;70.35;91360.47;2071703;69;20274;-70
2021/12/05 12:50:41;;;;;;;17.13;12.35;;;;;;;4.99;69.81;91358.16;2071365;69;20524;-72
2021/12/05 12:53:22;;;;;;;15.98;10.48;;;;;;;5.09;68.87;91358.78;2071718;69;20159;-69
2021/12/05 12:56:02;;;;;;;14.88;10.60;;;;;;;5.23;68.72;91358.88;2071304;69;20141;-71
2021/12/05 12:58:58;;;;;;;16.73;11.30;;;;;;;4.84;69.54;91358.66;2071389;69;20156;-71
2021/12/05 13:01:36;;;;;;;14.02;9.98;;;;;;;4.81;69.84;91351.50;2071127;69;20537;-73
2021/12/05 13:04:50;;;;;;;11.90;8.60;;;;;;;4.39;70.55;91358.75;2071126;69;20555;-73
2021/12/05 13:10:06;;;;;;;13.23;8.77;;;;;;;4.23;70.56;91357.75;2071581;69;20473;-70
2021/12/05 13:12:40;;;;;;;;;;;;;;;4.61;70.88;91364.22;2071696;69;20255;-68
2021/12/05 13:15:34;;;;;;;14.88;10.30;;;;;;;4.75;70.47;91353.94;2071270;69;20106;-72
2021/12/05 13:18:15;;;;;;;;;;;;;;;5.14;69.18;91361.81;2071233;69;20289;-68
2021/12/05 13:20:40;;;;;;;13.25;9.27;;;;;;;4.70;69.80;91364.13;2071051;69;20048;-69
2021/12/05 13:23:15;;;;;;;13.35;9.27;;;;;;;4.85;69.54;91357.31;2071112;69;20139;-71
2021/12/05 13:26:02;;;;;;;12.48;8.25;;;;;;;4.60;70.06;91363.50;2071042;69;20186;-72
2021/12/05 13:28:31;;;;;;;11.85;8.05;;;;;;;4.81;69.97;91365.44;2070992;69;20172;-73
2021/12/05 13:30:57;;;;;;;13.55;8.95;;;;;;;4.72;69.73;91369.06;2067836;69;20151;-71
2021/12/05 13:33:26;;;;;;;15.07;9.75;;;;;;;4.40;70.52;91370.63;2071000;69;20232;-73
2021/12/05 13:35:58;;;;;;;14.32;8.80;;;;;;;4.25;71.23;91366.25;2071086;69;20246;-75
2021/12/05 13:38:40;;;;;;;16.08;10.07;;;;;;;4.61;70.16;91378.16;2071067;69;20752;-69
2021/12/05 13:41:12;;;;;;;11.93;8.02;;;;;;;4.65;70.29;91370.78;2071103;69;20156;-72
2021/12/05 13:43:40;;;;;;;9.98;7.13;;;;;;;4.21;71.41;91374.34;2070959;69;20168;-70
2021/12/05 13:46:38;;;;;;;11.45;7.78;;;;;;;4.57;70.44;91373.78;2071119;69;20159;-71
2021/12/05 13:49:44;;;;;;;12.90;7.32;;;;;;;4.51;70.85;91381.06;2070940;69;20163;-74
2021/12/05 13:52:32;;;;;;;10.70;7.15;;;;;;;4.14;70.80;91380.88;2053616;69;20162;-70
2021/12/05 13:55:36;;;;;;;10.90;7.15;;;;;;;4.25;70.93;91382.94;2053572;69;20186;-72
2021/12/05 13:58:23;;;;;;;12.43;7.25;;;;;;;4.14;70.51;91383.66;2053382;70;20189;-72
2021/12/05 14:00:55;;;;;;;10.55;6.55;;;;;;;4.25;70.52;91383.69;2053354;69;20153;-69
2021/12/05 14:03:52;;;;;;;10.07;7.03;;;;;;;4.32;70.24;91385.53;2053842;69;20153;-70
2021/12/05 14:06:37;;;;;;;10.00;6.68;;;;;;;4.07;70.37;91385.31;2053942;70;20201;-71
2021/12/05 14:09:12;;;;;;;9.05;6.85;;;;;;;4.30;70.39;91385.38;2053765;69;20174;-71
2021/12/05 14:11:44;;;;;;;10.30;7.18;;;;;;;4.15;70.49;91380.25;2053688;70;20144;-70
2021/12/05 14:14:10;;;;;;;13.00;8.57;;;;;;;4.08;70.48;91376.38;2053864;70;20157;-71
2021/12/05 14:16:42;;;;;;;11.32;7.07;;;;;;;3.93;71.37;91387.22;2053826;70;20154;-70
2021/12/05 14:19:11;;;;;;;11.02;7.32;;;;;;;3.71;71.93;91389.28;2053808;69;20162;-72
2021/12/05 14:21:46;;;;;;;14.98;9.25;;;;;;;3.56;71.88;91385.59;2054135;70;20175;-73
2021/12/05 14:24:17;;;;;;;18.85;10.95;;;;;;;3.39;72.75;91376.81;2068151;69;20176;-75
2021/12/05 14:26:43;;;;;;;20.25;11.57;;;;;;;3.80;71.91;91388.50;2068206;69;20552;-71
2021/12/05 14:29:15;;;;;;;14.52;9.73;;;;;;;3.45;73.01;91382.78;2068033;69;20524;-72
2021/12/05 14:31:52;;;;;;;20.67;13.02;;;;;;;3.10;74.07;91391.63;2068248;69;20149;-74
2021/12/05 14:34:19;;;;;;;15.43;8.82;;;;;;;3.62;72.55;91385.28;2068260;69;20168;-71
2021/12/05 14:36:52;;;;;;;19.60;13.15;;;;;;;3.46;72.16;91384.94;2068061;69;20156;-73
2021/12/05 14:39:27;;;;;;;18.35;12.95;;;;;;;3.56;72.55;91393.22;2068019;69;20485;-70
2021/12/05 14:42:04;;;;;;;17.50;14.02;;;;;;;2.85;75.25;91394.84;2068207;69;20585;-69
2021/12/05 14:44:34;;;;;;;14.77;9.20;;;;;;;3.11;74.79;91395.13;2068047;69;20577;-71
2021/12/05 14:47:13;;;;;;;14.65;9.07;;;;;;;3.29;73.59;91399.13;2068124;69;20184;-70
2021/12/05 14:49:45;;;;;;;15.38;10.07;;;;;;;3.50;73.25;91401.91;2068021;69;20136;-70
2021/12/05 14:52:20;;;;;;;15.60;10.65;;;;;;;3.65;72.28;91397.25;2068025;69;20228;-70
2021/12/05 14:54:46;;;;;;;15.73;10.77;;;;;;;2.97;74.71;91403.97;2068083;69;20195;-71
2021/12/05 14:57:23;;;;;;;18.02;12.13;;;;;;;3.26;74.08;91412.19;2067947;69;20168;-70
2021/12/05 14:59:52;;;;;;;14.43;9.85;;;;;;;3.02;74.45;91408.53;2068279;69;20183;-69
2021/12/05 15:02:19;;;;;;;16.17;10.85;;;;;;;3.14;74.27;91416.94;2068449;69;20215;-70
2021/12/05 15:04:53;;;;;;;15.65;9.63;;;;;;;3.39;73.65;91422.06;2068425;69;20263;-70
2021/12/05 15:07:20;;;;;;;20.27;14.00;;;;;;;3.32;73.55;91422.97;2068532;69;20141;-70
2021/12/05 15:09:49;;;;;;;19.20;13.48;;;;;;;3.07;74.95;91423.41;2065328;69;20224;-69
2021/12/05 15:12:20;;;;;;;23.67;14.30;;;;;;;3.06;75.18;91433.06;2068530;69;20141;-70
2021/12/05 15:14:52;;;;;;;28.02;15.32;;;;;;;2.99;75.41;91431.22;2068489;69;20163;-69
2021/12/05 15:17:24;;;;;;;15.50;10.00;;;;;;;2.84;76.02;91431.56;2068527;69;20224;-71
2021/12/05 15:19:53;;;;;;;17.35;11.27;;;;;;;2.88;75.70;91429.06;2068385;69;20133;-71
2021/12/05 15:22:19;;;;;;;20.70;11.63;;;;;;;3.15;74.24;91435.06;2068485;69;20174;-70
2021/12/05 15:24:57;;;;;;;18.65;10.82;;;;;;;3.37;73.11;91440.66;2068498;69;20664;-71
2021/12/05 15:27:27;;;;;;;18.60;12.60;;;;;;;3.42;72.95;91442.38;2068554;69;20153;-72
2021/12/05 15:29:58;;;;;;;18.73;11.07;;;;;;;3.39;72.98;91446.34;2068513;69;20338;-74
2021/12/05 15:32:27;;;;;;;15.13;9.98;;;;;;;3.27;73.14;91443.50;2068536;69;20588;-74
2021/12/05 15:34:56;;;;;;;19.90;12.25;;;;;;;2.85;75.43;91449.72;2065025;69;20679;-69
2021/12/05 15:37:23;;;;;;;34.58;24.10;;;;;;;3.02;75.47;91452.25;2068541;69;20183;-69
2021/12/05 15:39:52;;;;;;;26.25;18.80;;;;;;;3.17;75.03;91459.50;2065106;69;20485;-72
2021/12/05 15:42:31;;;;;;;46.50;38.60;;;;;;;2.95;75.30;91461.50;2068464;69;20156;-70
2021/12/05 15:45:00;;;;;;;31.83;22.67;;;;;;;2.95;75.79;91456.69;2068540;69;20136;-71
2021/12/05 15:47:32;;;;;;;17.52;12.30;;;;;;;2.58;77.12;91464.56;2068508;69;20214;-69
2021/12/05 15:49:59;;;;;;;19.53;12.17;;;;;;;2.66;76.64;91461.63;2068272;69;20690;-70
2021/12/05 15:52:34;;;;;;;34.33;27.58;;;;;;;2.87;76.34;91472.06;2068419;69;20689;-72
2021/12/05 15:55:02;;;;;;;22.63;15.45;;;;;;;3.11;74.77;91467.44;2068373;69;20156;-71
2021/12/05 15:57:37;;;;;;;19.35;12.25;;;;;;;2.83;75.82;91469.00;2068386;69;20184;-74
2021/12/05 16:00:12;;;;;;;15.48;10.68;;;;;;;3.20;74.35;91472.22;2068493;69;20152;-69
2021/12/05 16:02:41;;;;;;;18.50;12.50;;;;;;;2.92;75.14;91477.31;2068446;69;20141;-73
2021/12/05 16:05:19;;;;;;;18.80;11.82;;;;;;;2.93;75.31;91481.56;2068325;69;20151;-73
2021/12/05 16:07:46;;;;;;;20.55;12.15;;;;;;;2.28;77.95;91488.16;2068523;69;20144;-73
2021/12/05 16:10:23;;;;;;;15.52;10.27;;;;;;;2.25;77.72;91487.28;2068397;69;20182;-70
2021/12/05 16:12:51;;;;;;;20.05;12.75;;;;;;;2.71;76.72;91483.53;2068276;69;20657;-73
2021/12/05 16:15:20;;;;;;;17.90;11.00;;;;;;;2.72;76.21;91490.56;2068407;69;20148;-73
2021/12/05 16:17:58;;;;;;;16.35;10.70;;;;;;;2.93;75.15;91491.94;2068357;69;20228;-73
2021/12/05 16:20:28;;;;;;;16.30;12.02;;;;;;;3.03;74.53;91492.66;2068276;69;20140;-72
2021/12/05 16:23:13;;;;;;;35.33;18.13;;;;;;;2.88;74.33;91495.75;2068348;69;20648;-72
2021/12/05 16:26:09;;;;;;;32.40;16.80;;;;;;;2.94;74.77;91490.63;2068200;69;20148;-73
2021/12/05 16:28:43;;;;;;;26.35;13.25;;;;;;;2.70;75.84;91495.97;2068418;69;20612;-74
2021/12/05 16:31:20;;;;;;;16.98;11.35;;;;;;;2.55;75.67;91499.78;2068298;69;20144;-70
2021/12/05 16:33:50;;;;;;;21.75;17.80;;;;;;;2.66;75.67;91500.53;2068286;69;20205;-71
2021/12/05 16:36:18;;;;;;;19.15;12.02;;;;;;;2.68;76.32;91501.38;2068150;69;20236;-74
2021/12/05 16:38:53;;;;;;;18.65;11.70;;;;;;;2.58;76.57;91513.84;2068349;69;20154;-75
2021/12/05 16:41:21;;;;;;;17.40;12.27;;;;;;;2.57;76.71;91509.59;2068452;69;20163;-71
2021/12/05 16:43:53;;;;;;;18.05;12.60;;;;;;;2.69;76.29;91511.16;2068404;69;20227;-72
2021/12/05 16:46:21;;;;;;;;;;;;;;;2.74;75.59;91512.91;2068552;69;20194;-70
2021/12/05 16:48:47;;;;;;;16.83;11.95;;;;;;;2.65;75.58;91513.66;2068389;69;20138;-71
2021/12/05 16:51:49;;;;;;;21.25;15.05;;;;;;;2.67;76.06;91513.81;2068119;69;20160;-69
2021/12/05 16:54:50;;;;;;;21.58;13.80;;;;;;;2.68;76.11;91514.56;2068275;69;20148;-71
2021/12/05 16:57:20;;;;;;;21.13;14.57;;;;;;;2.63;76.06;91512.81;2057485;69;20153;-73
2021/12/05 16:59:52;;;;;;;21.30;14.55;;;;;;;2.44;76.92;91508.75;2057548;69;20141;-70
2021/12/05 17:02:29;;;;;;;26.50;15.98;;;;;;;2.53;76.54;91507.28;2057384;69;20625;-69
2021/12/05 17:05:01;;;;;;;26.33;15.73;;;;;;;2.63;76.42;91507.25;2057338;69;20142;-69
2021/12/05 17:07:43;;;;;;;24.42;15.00;;;;;;;2.51;76.69;91521.00;2057447;69;20146;-69
2021/12/05 17:10:20;;;;;;;40.13;23.80;;;;;;;2.46;77.49;91516.47;2057456;69;20169;-69
2021/12/05 17:12:48;;;;;;;38.92;22.00;;;;;;;2.14;78.72;91515.63;2057495;69;20153;-68
2021/12/05 17:15:28;;;;;;;35.08;20.23;;;;;;;2.37;77.97;91523.50;2057413;69;20149;-69
2021/12/05 17:18:02;;;;;;;31.60;17.42;;;;;;;2.42;78.23;91524.53;2057457;69;20536;-68
2021/12/05 17:20:36;;;;;;;24.33;15.82;;;;;;;2.35;77.61;91534.50;2057361;69;20231;-71
2021/12/05 17:23:09;;;;;;;27.23;17.90;;;;;;;2.52;77.26;91528.78;2057516;69;20740;-69
2021/12/05 17:25:41;;;;;;;27.20;17.15;;;;;;;2.83;75.78;91539.22;2057393;69;20260;-70
2021/12/05 17:28:13;;;;;;;20.45;14.45;;;;;;;2.71;76.00;91539.13;2054703;69;20204;-69
2021/12/05 17:30:57;;;;;;;20.13;14.15;;;;;;;2.83;75.62;91528.09;2057544;69;20158;-70
2021/12/05 17:33:57;;;;;;;26.73;18.73;;;;;;;2.60;76.42;91531.38;2065219;69;20680;-71
2021/12/05 17:36:28;;;;;;;57.35;27.33;;;;;;;2.49;76.75;91532.00;2067414;69;20176;-71